createdAt,value
2017-10-28T00:00:59.654Z,99.90
2017-10-28T00:03:27.918Z,99.90
2017-10-28T00:05:55.451Z,99.90
2017-10-28T00:08:22.898Z,99.90
2017-10-28T00:10:50.350Z,99.90
2017-10-28T00:13:17.816Z,99.90
2017-10-28T00:15:45.262Z,99.90
2017-10-28T00:18:12.720Z,99.90
2017-10-28T00:20:40.185Z,99.90
2017-10-28T00:23:07.653Z,99.90
2017-10-28T00:25:35.113Z,99.90
2017-10-28T00:28:02.568Z,99.90
2017-10-28T00:30:35.698Z,99.90
2017-10-28T00:33:09.713Z,99.90
2017-10-28T00:35:43.801Z,99.90
2017-10-28T00:38:11.251Z,99.90
2017-10-28T00:40:38.693Z,99.90
2017-10-28T00:43:10.305Z,99.90
2017-10-28T00:45:37.759Z,99.90
2017-10-28T00:48:05.976Z,99.90
2017-10-28T00:50:33.440Z,99.90
2017-10-28T00:53:00.888Z,99.90
2017-10-28T00:55:28.341Z,99.90
2017-10-28T00:57:55.800Z,99.90
2017-10-28T01:00:23.245Z,99.90
2017-10-28T01:02:50.701Z,99.90
2017-10-28T01:05:18.158Z,99.90
2017-10-28T01:07:45.610Z,99.90
2017-10-28T01:10:13.061Z,99.90
2017-10-28T01:15:36.673Z,99.90
2017-10-28T01:18:04.125Z,99.90
2017-10-28T01:20:31.589Z,99.90
2017-10-28T01:22:59.033Z,99.90
2017-10-28T01:25:26.493Z,99.90
2017-10-28T01:27:53.949Z,99.90
2017-10-28T01:30:21.410Z,99.90
2017-10-28T01:32:48.848Z,99.90
2017-10-28T01:35:16.311Z,99.90
2017-10-28T01:37:43.762Z,99.90
2017-10-28T01:40:11.214Z,99.90
2017-10-28T01:42:38.665Z,99.90
2017-10-28T01:45:06.118Z,99.90
2017-10-28T01:47:33.601Z,99.90
2017-10-28T01:50:01.079Z,99.90
2017-10-28T01:52:28.525Z,99.90
2017-10-28T01:54:55.985Z,99.90
2017-10-28T01:57:23.458Z,99.90
2017-10-28T01:59:50.964Z,99.90
2017-10-28T02:02:18.424Z,99.90
2017-10-28T02:04:45.884Z,99.90
2017-10-28T02:07:14.121Z,99.90
2017-10-28T02:09:41.578Z,99.90
2017-10-28T02:12:09.041Z,99.90
2017-10-28T02:14:36.494Z,99.90
2017-10-28T02:17:03.954Z,99.90
2017-10-28T02:19:31.413Z,99.90
2017-10-28T02:21:58.872Z,99.90
2017-10-28T02:27:20.138Z,99.90
2017-10-28T02:29:47.589Z,99.90
2017-10-28T02:32:15.069Z,99.90
2017-10-28T02:34:42.509Z,99.90
2017-10-28T02:37:09.983Z,99.90
2017-10-28T02:39:37.454Z,99.90
2017-10-28T02:42:04.922Z,99.90
2017-10-28T02:44:32.369Z,99.90
2017-10-28T02:46:59.852Z,99.90
2017-10-28T02:49:28.065Z,99.90
2017-10-28T02:51:55.521Z,99.90
2017-10-28T02:54:22.973Z,99.90
2017-10-28T02:56:50.429Z,99.90
2017-10-28T02:59:17.878Z,99.90
2017-10-28T03:01:45.339Z,99.90
2017-10-28T03:04:12.809Z,99.90
2017-10-28T03:06:40.305Z,99.90
2017-10-28T03:09:07.853Z,99.90
2017-10-28T03:11:35.326Z,99.90
2017-10-28T03:14:02.831Z,99.90
2017-10-28T03:16:30.287Z,99.90
2017-10-28T03:18:57.761Z,99.90
2017-10-28T03:21:25.202Z,99.90
2017-10-28T03:23:52.667Z,99.90
2017-10-28T03:26:20.140Z,99.90
2017-10-28T03:28:47.597Z,99.90
2017-10-28T03:31:15.055Z,99.90
2017-10-28T03:33:42.519Z,99.90
2017-10-28T03:36:09.982Z,99.90
2017-10-28T03:38:37.443Z,99.90
2017-10-28T03:41:04.895Z,99.90
2017-10-28T03:43:32.381Z,99.90
2017-10-28T03:45:59.832Z,99.90
2017-10-28T03:48:27.289Z,99.90
2017-10-28T03:50:54.768Z,99.90
2017-10-28T03:53:22.982Z,99.90
2017-10-28T03:55:50.435Z,99.90
2017-10-28T03:58:17.893Z,99.90
2017-10-28T04:00:45.434Z,99.90
2017-10-28T04:03:12.879Z,99.90
2017-10-28T04:05:41.099Z,99.90
2017-10-28T04:08:08.558Z,99.90
2017-10-28T04:10:36.020Z,99.90
2017-10-28T04:13:03.482Z,99.90
2017-10-28T04:15:30.950Z,99.90
2017-10-28T04:17:58.401Z,99.90
2017-10-28T04:20:25.866Z,99.90
2017-10-28T04:22:53.322Z,99.90
2017-10-28T04:25:20.813Z,99.90
2017-10-28T04:27:48.273Z,99.90
2017-10-28T04:30:16.498Z,99.90
2017-10-28T04:32:43.958Z,99.90
2017-10-28T04:35:11.413Z,99.90
2017-10-28T04:37:38.865Z,99.90
2017-10-28T04:40:06.333Z,99.90
2017-10-28T04:42:33.810Z,99.90
2017-10-28T04:45:01.253Z,99.90
2017-10-28T04:47:28.728Z,99.90
2017-10-28T04:49:56.953Z,99.90
2017-10-28T04:52:24.405Z,99.90
2017-10-28T04:54:51.869Z,99.90
2017-10-28T04:57:19.318Z,99.90
2017-10-28T04:59:46.794Z,99.90
2017-10-28T05:02:14.255Z,99.90
2017-10-28T05:04:41.825Z,99.90
2017-10-28T05:07:09.277Z,99.90
2017-10-28T05:09:36.765Z,99.90
2017-10-28T05:12:04.217Z,99.90
2017-10-28T05:14:31.701Z,99.90
2017-10-28T05:16:59.170Z,99.90
2017-10-28T05:19:26.623Z,99.90
2017-10-28T05:21:54.080Z,99.90
2017-10-28T05:24:21.533Z,99.90
2017-10-28T05:26:48.992Z,99.90
2017-10-28T05:29:16.441Z,99.90
2017-10-28T05:31:44.670Z,99.90
2017-10-28T05:34:12.128Z,99.90
2017-10-28T05:36:39.593Z,99.90
2017-10-28T05:39:07.046Z,99.90
2017-10-28T05:41:34.505Z,99.90
2017-10-28T05:44:01.974Z,99.90
2017-10-28T05:46:29.456Z,99.90
2017-10-28T05:48:57.673Z,99.90
2017-10-28T05:51:25.158Z,99.90
2017-10-28T05:53:52.613Z,99.90
2017-10-28T05:56:20.070Z,99.90
2017-10-28T05:58:47.527Z,99.90
2017-10-28T06:01:14.986Z,99.90
2017-10-28T06:03:42.446Z,99.90
2017-10-28T06:06:09.915Z,99.90
2017-10-28T06:08:37.363Z,99.90
2017-10-28T06:11:04.857Z,99.90
2017-10-28T06:13:33.158Z,99.90
2017-10-28T06:16:00.607Z,99.90
2017-10-28T06:18:28.061Z,99.90
2017-10-28T06:20:55.527Z,99.90
2017-10-28T06:23:23.046Z,99.90
2017-10-28T06:25:50.502Z,99.90
2017-10-28T06:28:18.758Z,99.90
2017-10-28T06:30:46.231Z,99.90
2017-10-28T06:33:14.495Z,99.90
2017-10-28T06:35:41.957Z,99.90
2017-10-28T06:38:09.417Z,99.90
2017-10-28T06:40:36.865Z,99.90
2017-10-28T06:43:04.319Z,99.90
2017-10-28T06:45:31.776Z,99.90
2017-10-28T06:47:59.252Z,99.90
2017-10-28T06:50:27.485Z,99.90
2017-10-28T06:52:54.939Z,99.90
2017-10-28T06:55:22.390Z,99.90
2017-10-28T06:57:49.847Z,99.90
2017-10-28T07:00:17.290Z,99.60
2017-10-28T07:02:44.750Z,99.40
2017-10-28T07:05:12.211Z,99.10
2017-10-28T07:07:39.694Z,98.60
2017-10-28T07:10:07.142Z,98.20
2017-10-28T07:12:34.606Z,98.20
2017-10-28T07:15:02.065Z,98.10
2017-10-28T07:17:29.526Z,98.40
2017-10-28T07:19:57.044Z,98.00
2017-10-28T07:22:25.252Z,97.10
2017-10-28T07:24:52.722Z,97.10
2017-10-28T07:27:20.170Z,96.60
2017-10-28T07:29:47.677Z,95.80
2017-10-28T07:32:15.138Z,95.40
2017-10-28T07:34:42.589Z,95.10
2017-10-28T07:37:10.045Z,95.00
2017-10-28T07:39:37.502Z,95.40
2017-10-28T07:42:05.762Z,95.10
2017-10-28T07:44:33.219Z,95.10
2017-10-28T07:47:00.671Z,95.00
2017-10-28T07:49:28.128Z,95.70
2017-10-28T07:51:55.639Z,95.40
2017-10-28T07:54:23.110Z,94.80
2017-10-28T07:56:50.630Z,95.10
2017-10-28T07:59:18.111Z,95.20
2017-10-28T08:01:45.568Z,95.40
2017-10-28T08:04:18.782Z,95.80
2017-10-28T08:06:46.238Z,96.00
2017-10-28T08:09:13.693Z,96.20
2017-10-28T08:14:38.368Z,96.00
2017-10-28T08:17:05.820Z,96.00
2017-10-28T08:19:33.272Z,96.00
2017-10-28T08:22:00.731Z,95.70
2017-10-28T08:24:28.226Z,95.60
2017-10-28T08:26:55.680Z,95.20
2017-10-28T08:29:23.894Z,95.00
2017-10-28T08:31:51.370Z,95.00
2017-10-28T08:34:18.818Z,94.70
2017-10-28T08:36:46.321Z,94.50
2017-10-28T08:39:14.545Z,94.20
2017-10-28T08:41:42.002Z,94.20
2017-10-28T08:44:09.457Z,93.80
2017-10-28T08:46:36.915Z,93.70
2017-10-28T08:49:04.387Z,93.50
2017-10-28T08:51:31.850Z,92.90
2017-10-28T08:53:59.311Z,92.70
2017-10-28T08:56:26.811Z,92.50
2017-10-28T08:58:54.271Z,92.50
2017-10-28T09:01:21.751Z,91.90
2017-10-28T09:03:49.214Z,91.70
2017-10-28T09:06:16.692Z,91.80
2017-10-28T09:08:44.138Z,91.90
2017-10-28T09:11:11.595Z,91.70
2017-10-28T09:13:39.073Z,91.90
2017-10-28T09:16:06.521Z,91.90
2017-10-28T09:18:33.981Z,91.60
2017-10-28T09:21:01.443Z,91.50
2017-10-28T09:23:28.891Z,91.10
2017-10-28T09:25:56.384Z,90.20
2017-10-28T09:28:24.600Z,90.00
2017-10-28T09:30:52.074Z,89.90
2017-10-28T09:33:19.545Z,89.20
2017-10-28T09:35:47.003Z,87.90
2017-10-28T09:38:14.479Z,87.80
2017-10-28T09:40:41.946Z,87.00
2017-10-28T09:43:10.209Z,84.80
2017-10-28T09:48:34.562Z,82.30
2017-10-28T09:51:02.025Z,82.80
2017-10-28T09:53:29.483Z,82.10
2017-10-28T09:55:56.953Z,81.60
2017-10-28T09:58:24.451Z,81.40
2017-10-28T10:00:51.909Z,80.50
2017-10-28T10:03:19.365Z,80.50
2017-10-28T10:08:45.251Z,79.70
2017-10-28T10:11:12.706Z,80.20
2017-10-28T10:13:40.166Z,81.40
2017-10-28T10:16:07.601Z,81.40
2017-10-28T10:18:35.079Z,81.80
2017-10-28T10:21:02.561Z,79.50
2017-10-28T10:23:30.017Z,80.20
2017-10-28T10:25:57.461Z,79.40
2017-10-28T10:28:24.908Z,78.20
2017-10-28T10:30:52.358Z,76.90
2017-10-28T10:33:19.804Z,75.70
2017-10-28T10:35:47.245Z,76.30
2017-10-28T10:38:14.688Z,78.00
2017-10-28T10:40:42.894Z,78.30
2017-10-28T10:43:10.337Z,78.30
2017-10-28T10:45:37.776Z,78.40
2017-10-28T10:48:05.993Z,79.00
2017-10-28T10:50:33.433Z,79.00
2017-10-28T10:53:00.868Z,78.80
2017-10-28T10:55:29.078Z,76.30
2017-10-28T10:57:56.508Z,76.30
2017-10-28T11:00:23.949Z,74.60
2017-10-28T11:02:52.171Z,72.50
2017-10-28T11:05:19.612Z,72.20
2017-10-28T11:07:47.057Z,69.80
2017-10-28T11:10:15.285Z,70.00
2017-10-28T11:12:42.762Z,70.00
2017-10-28T11:15:10.199Z,70.40
2017-10-28T11:17:37.645Z,70.20
2017-10-28T11:20:05.089Z,69.70
2017-10-28T11:22:33.304Z,69.50
2017-10-28T11:25:00.735Z,69.40
2017-10-28T11:27:28.172Z,69.40
2017-10-28T11:29:56.384Z,66.80
2017-10-28T11:32:23.833Z,67.40
2017-10-28T11:34:51.273Z,65.70
2017-10-28T11:37:18.714Z,63.90
2017-10-28T11:39:46.148Z,62.80
2017-10-28T11:42:13.589Z,61.30
2017-10-28T11:44:41.069Z,61.40
2017-10-28T11:47:08.513Z,63.20
2017-10-28T11:49:35.948Z,63.80
2017-10-28T11:52:03.407Z,65.60
2017-10-28T11:54:30.853Z,66.50
2017-10-28T11:56:58.300Z,67.20
2017-10-28T11:59:26.508Z,70.10
2017-10-28T12:01:53.953Z,70.10
2017-10-28T12:04:21.403Z,69.40
2017-10-28T12:06:48.873Z,70.80
2017-10-28T12:09:16.309Z,70.40
2017-10-28T12:11:44.538Z,71.30
2017-10-28T12:14:11.979Z,71.30
2017-10-28T12:16:39.423Z,71.80
2017-10-28T12:19:06.877Z,70.80
2017-10-28T12:21:34.312Z,70.30
2017-10-28T12:24:02.520Z,68.00
2017-10-28T12:26:29.964Z,67.90
2017-10-28T12:28:57.405Z,67.90
2017-10-28T12:31:25.613Z,67.60
2017-10-28T12:33:53.053Z,67.40
2017-10-28T12:36:20.487Z,68.70
2017-10-28T12:38:47.929Z,69.40
2017-10-28T12:41:15.367Z,69.40
2017-10-28T12:43:42.844Z,68.00
2017-10-28T12:46:10.287Z,67.40
2017-10-28T12:48:37.724Z,66.40
2017-10-28T12:51:05.190Z,66.30
2017-10-28T12:53:32.635Z,66.20
2017-10-28T12:56:00.834Z,67.70
2017-10-28T12:58:28.284Z,67.60
2017-10-28T13:00:55.728Z,68.40
2017-10-28T13:03:23.941Z,68.30
2017-10-28T13:05:51.437Z,68.30
2017-10-28T13:08:18.891Z,69.20
2017-10-28T13:10:46.329Z,69.20
2017-10-28T13:13:13.800Z,69.10
2017-10-28T13:15:41.236Z,69.20
2017-10-28T13:18:08.672Z,68.00
2017-10-28T13:23:32.366Z,66.70
2017-10-28T13:25:59.825Z,66.10
2017-10-28T13:28:27.282Z,66.00
2017-10-28T13:30:54.780Z,64.00
2017-10-28T13:33:22.238Z,65.80
2017-10-28T13:35:49.690Z,66.50
2017-10-28T13:38:17.143Z,68.20
2017-10-28T13:40:44.686Z,68.20
2017-10-28T13:43:12.161Z,67.00
2017-10-28T13:48:30.384Z,69.20
2017-10-28T13:50:57.843Z,69.50
2017-10-28T13:53:25.297Z,70.20
2017-10-28T13:58:49.065Z,68.90
2017-10-28T14:01:16.518Z,69.60
2017-10-28T14:03:43.974Z,69.70
2017-10-28T14:06:11.461Z,69.70
2017-10-28T14:08:38.914Z,70.00
2017-10-28T14:11:06.375Z,70.30
2017-10-28T14:16:29.887Z,69.40
2017-10-28T14:18:57.336Z,69.40
2017-10-28T14:24:28.706Z,70.20
2017-10-28T14:26:56.170Z,70.20
2017-10-28T14:29:23.617Z,69.70
2017-10-28T14:31:51.091Z,69.50
2017-10-28T14:34:18.539Z,69.80
2017-10-28T14:36:45.993Z,70.20
2017-10-28T14:39:13.438Z,70.00
2017-10-28T14:41:40.902Z,71.00
2017-10-28T14:44:08.351Z,70.80
2017-10-28T14:49:33.514Z,73.60
2017-10-28T14:52:00.969Z,73.60
2017-10-28T14:54:28.417Z,73.90
2017-10-28T14:56:55.871Z,75.10
2017-10-28T14:59:23.309Z,74.50
2017-10-28T15:04:53.974Z,75.30
2017-10-28T15:07:21.442Z,75.40
2017-10-28T15:09:48.893Z,76.20
2017-10-28T15:12:16.350Z,75.90
2017-10-28T15:14:43.777Z,75.90
2017-10-28T15:17:11.224Z,76.00
2017-10-28T15:19:38.659Z,76.60
2017-10-28T15:22:19.320Z,77.10
2017-10-28T15:24:46.760Z,77.40
2017-10-28T15:27:14.200Z,77.40
2017-10-28T15:29:42.414Z,78.40
2017-10-28T15:32:09.861Z,78.30
2017-10-28T15:34:37.292Z,78.70
2017-10-28T15:37:05.527Z,78.90
2017-10-28T15:39:32.964Z,78.90
2017-10-28T15:42:00.405Z,79.30
2017-10-28T15:44:27.862Z,79.20
2017-10-28T15:46:55.349Z,79.50
2017-10-28T15:49:22.789Z,79.20
2017-10-28T15:51:50.246Z,79.90
2017-10-28T15:54:17.698Z,80.40
2017-10-28T15:56:45.214Z,80.50
2017-10-28T15:59:12.682Z,80.70
2017-10-28T16:01:40.130Z,80.90
2017-10-28T16:04:07.591Z,81.20
2017-10-28T16:06:35.040Z,81.60
2017-10-28T16:09:04.408Z,82.00
2017-10-28T16:11:32.728Z,82.10
2017-10-28T16:14:00.184Z,81.90
2017-10-28T16:16:27.637Z,82.30
2017-10-28T16:18:55.094Z,82.30
2017-10-28T16:21:22.545Z,82.70
2017-10-28T16:23:50.003Z,82.90
2017-10-28T16:26:17.450Z,83.00
2017-10-28T16:28:44.916Z,83.10
2017-10-28T16:31:12.366Z,83.20
2017-10-28T16:33:39.821Z,83.50
2017-10-28T16:36:07.333Z,83.50
2017-10-28T16:38:34.802Z,83.90
2017-10-28T16:41:02.254Z,84.00
2017-10-28T16:43:29.708Z,84.00
2017-10-28T16:45:57.155Z,84.30
2017-10-28T16:48:24.658Z,84.10
2017-10-28T16:50:52.869Z,84.80
2017-10-28T16:53:20.323Z,84.70
2017-10-28T16:55:47.773Z,85.20
2017-10-28T16:58:15.221Z,85.00
2017-10-28T17:00:42.678Z,85.00
2017-10-28T17:03:10.121Z,85.20
2017-10-28T17:05:37.578Z,85.20
2017-10-28T17:08:05.026Z,85.70
2017-10-28T17:10:36.254Z,86.10
2017-10-28T17:13:03.702Z,86.10
2017-10-28T17:15:31.150Z,85.80
2017-10-28T17:17:58.601Z,85.80
2017-10-28T17:20:26.053Z,86.10
2017-10-28T17:22:53.515Z,86.40
2017-10-28T17:25:20.961Z,85.80
2017-10-28T17:27:48.430Z,85.80
2017-10-28T17:30:15.890Z,85.50
2017-10-28T17:32:43.340Z,85.50
2017-10-28T17:35:10.790Z,85.20
2017-10-28T17:37:38.335Z,84.40
2017-10-28T17:40:05.807Z,84.40
2017-10-28T17:42:33.254Z,84.00
2017-10-28T17:45:00.710Z,83.60
2017-10-28T17:47:28.169Z,83.70
2017-10-28T17:49:55.649Z,82.70
2017-10-28T17:52:23.139Z,81.50
2017-10-28T17:54:50.581Z,82.00
2017-10-28T17:57:18.035Z,81.80
2017-10-28T17:59:45.501Z,80.50
2017-10-28T18:02:13.077Z,80.20
2017-10-28T18:04:40.502Z,79.40
2017-10-28T18:07:07.977Z,79.20
2017-10-28T18:09:35.414Z,79.60
2017-10-28T18:12:02.874Z,78.20
2017-10-28T18:14:30.323Z,78.20
2017-10-28T18:16:57.780Z,78.50
2017-10-28T18:19:25.237Z,78.00
2017-10-28T18:21:52.693Z,77.90
2017-10-28T18:24:20.159Z,77.80
2017-10-28T18:26:47.614Z,77.00
2017-10-28T18:29:15.058Z,76.60
2017-10-28T18:31:42.534Z,76.00
2017-10-28T18:34:09.977Z,75.90
2017-10-28T18:36:37.446Z,76.40
2017-10-28T18:39:04.883Z,75.90
2017-10-28T18:41:32.333Z,75.40
2017-10-28T18:43:59.777Z,75.50
2017-10-28T18:46:27.236Z,76.00
2017-10-28T18:48:54.689Z,75.20
2017-10-28T18:51:22.155Z,75.30
2017-10-28T18:53:49.611Z,75.60
2017-10-28T18:56:17.058Z,75.40
2017-10-28T18:58:44.505Z,74.60
2017-10-28T19:01:12.715Z,74.30
2017-10-28T19:03:40.171Z,74.10
2017-10-28T19:06:07.638Z,73.90
2017-10-28T19:11:31.582Z,72.70
2017-10-28T19:13:59.033Z,72.40
2017-10-28T19:16:26.482Z,72.90
2017-10-28T19:18:53.954Z,72.40
2017-10-28T19:21:21.397Z,72.60
2017-10-28T19:23:48.854Z,72.00
2017-10-28T19:26:16.318Z,71.20
2017-10-28T19:28:43.770Z,70.60
2017-10-28T19:31:11.222Z,70.60
2017-10-28T19:33:38.666Z,70.20
2017-10-28T19:36:06.121Z,69.20
2017-10-28T19:38:33.578Z,68.20
2017-10-28T19:41:01.121Z,68.30
2017-10-28T19:43:28.566Z,68.10
2017-10-28T19:45:56.794Z,68.30
2017-10-28T19:48:24.297Z,68.20
2017-10-28T19:50:51.730Z,68.10
2017-10-28T19:53:19.181Z,67.30
2017-10-28T19:55:46.626Z,67.30
2017-10-28T19:58:14.072Z,67.40
2017-10-28T20:00:41.512Z,66.60
2017-10-28T20:03:08.971Z,66.60
2017-10-28T20:05:36.405Z,66.90
2017-10-28T20:08:03.839Z,70.50
2017-10-28T20:10:31.282Z,72.20
2017-10-28T20:12:58.709Z,71.40
2017-10-28T20:15:26.161Z,70.60
2017-10-28T20:17:53.588Z,71.20
2017-10-28T20:20:21.033Z,70.50
2017-10-28T20:22:49.251Z,71.40
2017-10-28T20:25:16.706Z,71.30
2017-10-28T20:27:44.201Z,71.60
2017-10-28T20:30:11.652Z,73.10
2017-10-28T20:32:39.097Z,76.30
2017-10-28T20:35:06.573Z,78.40
2017-10-28T20:37:34.012Z,79.50
2017-10-28T20:40:01.460Z,79.20
2017-10-28T20:42:28.923Z,79.20
2017-10-28T20:44:56.356Z,81.00
2017-10-28T20:47:23.787Z,82.10
2017-10-28T20:49:51.228Z,81.80
2017-10-28T20:52:19.430Z,82.90
2017-10-28T20:54:46.872Z,82.90
2017-10-28T20:57:15.092Z,85.10
2017-10-28T20:59:42.551Z,85.10
2017-10-28T21:02:09.975Z,84.80
2017-10-28T21:04:37.429Z,85.00
2017-10-28T21:07:06.449Z,83.40
2017-10-28T21:09:33.880Z,83.40
2017-10-28T21:12:01.315Z,82.80
2017-10-28T21:14:28.756Z,81.70
2017-10-28T21:16:56.198Z,82.90
2017-10-28T21:19:23.637Z,81.70
2017-10-28T21:21:51.841Z,80.70
2017-10-28T21:24:19.278Z,80.70
2017-10-28T21:26:46.712Z,80.40
2017-10-28T21:29:14.945Z,80.40
2017-10-28T21:31:42.386Z,83.30
2017-10-28T21:34:09.822Z,86.90
2017-10-28T21:36:37.264Z,88.00
2017-10-28T21:39:08.115Z,87.90
2017-10-28T21:41:35.559Z,89.20
2017-10-28T21:44:02.984Z,90.00
2017-10-28T21:46:30.444Z,90.40
2017-10-28T21:48:57.897Z,90.50
2017-10-28T21:51:25.340Z,90.60
2017-10-28T21:53:52.762Z,88.20
2017-10-28T21:56:20.209Z,85.10
2017-10-28T21:58:48.410Z,87.60
2017-10-28T22:01:15.879Z,87.60
2017-10-28T22:03:43.316Z,89.20
2017-10-28T22:06:11.542Z,91.80
2017-10-28T22:08:42.481Z,92.00
2017-10-28T22:11:09.920Z,92.20
2017-10-28T22:13:37.365Z,92.70
2017-10-28T22:16:05.564Z,93.60
2017-10-28T22:18:33.005Z,93.50
2017-10-28T22:21:00.440Z,94.20
2017-10-28T22:23:28.642Z,94.50
2017-10-28T22:25:56.079Z,94.40
2017-10-28T22:28:23.514Z,93.60
2017-10-28T22:30:50.952Z,93.70
2017-10-28T22:33:18.413Z,94.50
2017-10-28T22:35:45.856Z,94.80
2017-10-28T22:38:13.290Z,95.30
2017-10-28T22:40:41.487Z,97.60
2017-10-28T22:43:08.930Z,97.60
2017-10-28T22:45:37.123Z,98.60
2017-10-28T22:48:04.577Z,98.30
2017-10-28T22:50:37.647Z,99.10
2017-10-28T22:53:08.586Z,99.10
2017-10-28T22:55:39.242Z,99.20
2017-10-28T22:58:07.449Z,99.40
2017-10-28T23:00:34.890Z,99.20
2017-10-28T23:03:03.101Z,99.30
2017-10-28T23:05:30.532Z,99.30
2017-10-28T23:07:57.974Z,99.00
2017-10-28T23:10:26.982Z,99.90
2017-10-28T23:12:55.196Z,99.90
2017-10-28T23:15:22.662Z,99.90
2017-10-28T23:17:50.090Z,99.90
2017-10-28T23:20:17.529Z,99.90
2017-10-28T23:22:45.742Z,99.90
2017-10-28T23:25:13.165Z,99.90
2017-10-28T23:27:41.359Z,99.90
2017-10-28T23:30:08.800Z,99.90
2017-10-28T23:32:36.231Z,99.90
2017-10-28T23:35:04.440Z,99.90
2017-10-28T23:37:31.877Z,99.90
2017-10-28T23:42:56.590Z,99.90
2017-10-28T23:45:24.068Z,99.90
2017-10-28T23:47:52.274Z,99.90
2017-10-28T23:50:19.729Z,99.90
2017-10-28T23:55:50.454Z,99.90
2017-10-28T23:58:17.905Z,99.90
